Svinoy — V7RM5 — position and weather

sailwx.info

Track history (hours):
 
Tides and Currents Weather Stations Pressure Air Temp Water Temp Dewpoint Dewpoint Depression Visibility Wind Speed Wind Dir Waves Ship Positions

Svinoy

Last reported at 2016-Jul-21 07:20 UTC. Time now 2016-Jul-29 23:36 UTC.
Position N 30°16' W 123°59'.
Warning: this ship's position is 8 days out of date.

Length 190 m; draft 11.9 m.

Type: Cargo ship. MMSI: 538003541.

Date/timePositionNaut miles runAvg speedWind from/ knotsBaromVisibWave heightAir tempDewpointWater temp
2016-Jul-21 07:20N 30°16' W 123°59'3912.6
2016-Jul-21 04:16N 29°52' W 123°24'2512.5
2016-Jul-21 02:16N 29°36' W 123°02'3412.6
2016-Jul-20 23:34N 29°15' W 122°31'1312.4
2016-Jul-20 22:32N 29°07' W 122°20'1212.4
2016-Jul-20 21:33N 28°59' W 122°09'1312.5
2016-Jul-20 20:34N 28°51' W 121°58'1312.5
2016-Jul-20 19:33N 28°43' W 121°47'1312.6
2016-Jul-20 18:33N 28°35' W 121°36'1312.6
2016-Jul-20 17:33N 28°28' W 121°25'1312.7
2016-Jul-20 16:31N 28°19' W 121°13'1212.8
2016-Jul-20 15:33N 28°12' W 121°02'1712.6
2016-Jul-20 14:13N 28°01' W 120°47'912.5
2016-Jul-20 13:30N 27°55' W 120°40'6712.7
2016-Jul-20 08:16N 27°13' W 119°42'912.7
2016-Jul-20 07:32N 27°07' W 119°34'2612.7
2016-Jul-20 05:27N 26°50' W 119°11'4112.5
2016-Jul-20 02:10N 26°23' W 118°36'812.5
2016-Jul-20 01:33N 26°18' W 118°30'26212.5
2016-Jul-19 04:33N 23°46' W 114°34'  
Track history (hours):
 
Tides and Currents Weather Stations Pressure Air Temp Water Temp Dewpoint Dewpoint Depression Visibility Wind Speed Wind Dir Waves Ship Positions

Svinoy

Last reported at 2016-Jul-21 07:20 UTC. Time now 2016-Jul-29 23:36 UTC.
Position N 30°16' W 123°59'.
Warning: this ship's position is 8 days out of date.

Length 190 m; draft 11.9 m.

Type: Cargo ship. MMSI: 538003541.

Date/timePositionNaut miles runAvg speedWind from/ knotsBaromVisibWave heightAir tempDewpointWater temp
2016-Jul-21 07:20N 30°16' W 123°59'3912.6
2016-Jul-21 04:16N 29°52' W 123°24'2512.5
2016-Jul-21 02:16N 29°36' W 123°02'3412.6
2016-Jul-20 23:34N 29°15' W 122°31'1312.4
2016-Jul-20 22:32N 29°07' W 122°20'1212.4
2016-Jul-20 21:33N 28°59' W 122°09'1312.5
2016-Jul-20 20:34N 28°51' W 121°58'1312.5
2016-Jul-20 19:33N 28°43' W 121°47'1312.6
2016-Jul-20 18:33N 28°35' W 121°36'1312.6
2016-Jul-20 17:33N 28°28' W 121°25'1312.7
2016-Jul-20 16:31N 28°19' W 121°13'1212.8
2016-Jul-20 15:33N 28°12' W 121°02'1712.6
2016-Jul-20 14:13N 28°01' W 120°47'912.5
2016-Jul-20 13:30N 27°55' W 120°40'6712.7
2016-Jul-20 08:16N 27°13' W 119°42'912.7
2016-Jul-20 07:32N 27°07' W 119°34'2612.7
2016-Jul-20 05:27N 26°50' W 119°11'4112.5
2016-Jul-20 02:10N 26°23' W 118°36'812.5
2016-Jul-20 01:33N 26°18' W 118°30'26212.5
2016-Jul-19 04:33N 23°46' W 114°34'  

Dump ship's entire track history